createdAt,value
2016-09-21T00:00:53.283Z,16.58
2016-09-21T00:01:52.932Z,16.5
2016-09-21T00:02:53.540Z,16.5
2016-09-21T00:03:53.522Z,16.5
2016-09-21T00:04:53.094Z,16.58
2016-09-21T00:05:53.356Z,16.5
2016-09-21T00:06:53.281Z,16.67
2016-09-21T00:07:53.264Z,16.65
2016-09-21T00:08:53.625Z,16.67
2016-09-21T00:09:53.172Z,16.6
2016-09-21T00:10:53.315Z,16.58
2016-09-21T00:11:53.063Z,16.63
2016-09-21T00:12:53.672Z,16.67
2016-09-21T00:13:52.976Z,16.67
2016-09-21T00:14:52.631Z,16.65
2016-09-21T00:15:53.070Z,16.65
2016-09-21T00:16:52.823Z,16.56
2016-09-21T00:17:52.176Z,16.55
2016-09-21T00:18:52.725Z,16.65
2016-09-21T00:19:52.372Z,16.62
2016-09-21T00:20:52.843Z,16.56
2016-09-21T00:21:52.480Z,16.5
2016-09-21T00:22:52.556Z,16.56
2016-09-21T00:23:52.503Z,16.55
2016-09-21T00:24:52.660Z,16.56
2016-09-21T00:25:52.393Z,16.56
2016-09-21T00:26:52.310Z,16.55
2016-09-21T00:27:51.992Z,16.55
2016-09-21T00:28:52.243Z,16.56
2016-09-21T00:29:52.196Z,16.6
2016-09-21T00:30:52.185Z,16.63
2016-09-21T00:31:52.088Z,16.56
2016-09-21T00:32:52.055Z,16.62
2016-09-21T00:33:51.917Z,16.63
2016-09-21T00:34:51.672Z,16.73
2016-09-21T00:35:51.924Z,16.73
2016-09-21T00:36:51.628Z,16.8
2016-09-21T00:37:51.829Z,16.81
2016-09-21T00:38:51.763Z,16.71
2016-09-21T00:39:51.405Z,16.73
2016-09-21T00:40:51.696Z,16.68
2016-09-21T00:41:51.640Z,16.58
2016-09-21T00:42:51.266Z,16.58
2016-09-21T00:43:51.210Z,16.56
2016-09-21T00:44:51.201Z,16.53
2016-09-21T00:45:51.459Z,16.53
2016-09-21T00:46:51.397Z,16.56
2016-09-21T00:47:51.052Z,16.55
2016-09-21T00:48:51.010Z,16.59
2016-09-21T00:49:50.935Z,16.52
2016-09-21T00:50:51.198Z,16.52
2016-09-21T00:51:51.147Z,16.53
2016-09-21T00:52:50.780Z,16.55
2016-09-21T00:53:50.945Z,16.6
2016-09-21T00:54:50.703Z,16.65
2016-09-21T00:55:50.650Z,16.65
2016-09-21T00:56:50.604Z,16.63
2016-09-21T00:57:50.549Z,16.58
2016-09-21T00:58:50.821Z,16.6
2016-09-21T00:59:50.965Z,16.6
2016-09-21T01:00:50.099Z,16.67
2016-09-21T01:01:50.562Z,16.65
2016-09-21T01:02:50.627Z,16.59
2016-09-21T01:03:50.259Z,16.65
2016-09-21T01:04:49.905Z,16.55
2016-09-21T01:05:50.164Z,16.55
2016-09-21T01:06:50.652Z,16.55
2016-09-21T01:07:50.381Z,16.56
2016-09-21T01:08:50.034Z,16.55
2016-09-21T01:09:50.341Z,16.5
2016-09-21T01:10:50.260Z,16.56
2016-09-21T01:11:50.200Z,16.68
2016-09-21T01:12:50.168Z,16.68
2016-09-21T01:13:49.484Z,16.81
2016-09-21T01:14:49.756Z,16.88
2016-09-21T01:15:50.001Z,16.78
2016-09-21T01:16:49.966Z,16.75
2016-09-21T01:17:49.912Z,16.71
2016-09-21T01:18:49.556Z,16.65
2016-09-21T01:19:49.804Z,16.6
2016-09-21T01:20:49.455Z,16.67
2016-09-21T01:21:49.701Z,16.74
2016-09-21T01:22:49.357Z,16.68
2016-09-21T01:23:49.614Z,16.68
2016-09-21T01:24:49.559Z,16.73
2016-09-21T01:25:49.518Z,16.71
2016-09-21T01:26:49.491Z,16.6
2016-09-21T01:27:49.123Z,16.55
2016-09-21T01:28:49.370Z,16.62
2016-09-21T01:29:49.025Z,16.67
2016-09-21T01:30:49.273Z,16.71
2016-09-21T01:31:49.219Z,16.73
2016-09-21T01:32:49.175Z,16.68
2016-09-21T01:33:49.140Z,16.71
2016-09-21T01:34:49.348Z,16.77
2016-09-21T01:35:49.072Z,16.7
2016-09-21T01:36:48.697Z,16.75
2016-09-21T01:37:48.981Z,16.75
2016-09-21T01:38:48.620Z,16.8
2016-09-21T01:39:49.060Z,16.67
2016-09-21T01:40:49.012Z,16.62
2016-09-21T01:41:48.330Z,16.63
2016-09-21T01:42:48.415Z,16.65
2016-09-21T01:43:48.400Z,16.62
2016-09-21T01:44:48.300Z,16.55
2016-09-21T01:45:48.331Z,16.52
2016-09-21T01:46:48.527Z,16.52
2016-09-21T01:47:48.178Z,16.6
2016-09-21T01:48:48.425Z,16.5
2016-09-21T01:49:48.054Z,16.68
2016-09-21T01:50:48.016Z,16.75
2016-09-21T01:51:48.035Z,16.75
2016-09-21T01:52:48.231Z,16.74
2016-09-21T01:53:47.877Z,16.58
2016-09-21T01:54:48.019Z,16.71
2016-09-21T01:55:48.091Z,16.71
2016-09-21T01:56:47.720Z,16.78
2016-09-21T01:57:48.198Z,16.81
2016-09-21T01:58:47.621Z,16.71
2016-09-21T01:59:47.920Z,16.74
2016-09-21T02:00:47.904Z,16.65
2016-09-21T02:01:48.016Z,16.67
2016-09-21T02:02:47.496Z,16.68
2016-09-21T02:03:47.607Z,16.73
2016-09-21T02:04:47.349Z,16.8
2016-09-21T02:05:47.609Z,16.7
2016-09-21T02:06:47.556Z,16.83
2016-09-21T02:07:47.711Z,16.95
2016-09-21T02:08:47.468Z,16.92
2016-09-21T02:09:47.637Z,16.81
2016-09-21T02:10:47.067Z,16.86
2016-09-21T02:11:47.322Z,16.77
2016-09-21T02:12:46.955Z,16.83
2016-09-21T02:13:46.908Z,16.86
2016-09-21T02:14:46.866Z,16.81
2016-09-21T02:15:47.132Z,16.74
2016-09-21T02:16:46.464Z,16.74
2016-09-21T02:17:46.413Z,16.75
2016-09-21T02:18:46.990Z,16.75
2016-09-21T02:19:46.941Z,16.73
2016-09-21T02:20:46.881Z,16.7
2016-09-21T02:21:46.828Z,16.71
2016-09-21T02:22:46.493Z,16.71
2016-09-21T02:23:46.739Z,16.74
2016-09-21T02:24:46.394Z,16.75
2016-09-21T02:25:46.643Z,16.68
2016-09-21T02:26:46.604Z,16.59
2016-09-21T02:27:46.241Z,16.58
2016-09-21T02:28:46.506Z,16.53
2016-09-21T02:29:46.477Z,16.55
2016-09-21T02:30:46.439Z,16.38
2016-09-21T02:31:46.613Z,16.41
2016-09-21T02:32:46.041Z,16.44
2016-09-21T02:33:45.985Z,16.44
2016-09-21T02:34:45.839Z,16.44
2016-09-21T02:35:46.245Z,16.34
2016-09-21T02:36:45.827Z,16.35
2016-09-21T02:37:45.853Z,16.31
2016-09-21T02:38:45.726Z,16.3
2016-09-21T02:39:45.989Z,16.41
2016-09-21T02:40:45.924Z,16.44
2016-09-21T02:41:45.888Z,16.4
2016-09-21T02:42:46.028Z,16.41
2016-09-21T02:43:45.494Z,16.31
2016-09-21T02:44:45.434Z,16.41
2016-09-21T02:45:45.374Z,16.41
2016-09-21T02:46:45.689Z,16.4
2016-09-21T02:47:45.508Z,16.4
2016-09-21T02:48:45.573Z,16.35
2016-09-21T02:49:45.489Z,16.41
2016-09-21T02:50:45.152Z,16.44
2016-09-21T02:51:45.093Z,16.53
2016-09-21T02:52:45.558Z,16.55
2016-09-21T02:53:44.977Z,16.49
2016-09-21T02:54:44.970Z,16.44
2016-09-21T02:55:45.416Z,16.63
2016-09-21T02:56:45.390Z,16.68
2016-09-21T02:57:44.801Z,16.67
2016-09-21T02:58:44.439Z,16.7
2016-09-21T02:59:44.737Z,16.74
2016-09-21T03:00:44.666Z,16.65
2016-09-21T03:01:44.621Z,16.59
2016-09-21T03:02:44.866Z,16.59
2016-09-21T03:03:44.517Z,16.58
2016-09-21T03:04:44.473Z,16.55
2016-09-21T03:05:44.418Z,16.62
2016-09-21T03:06:44.637Z,16.68
2016-09-21T03:07:44.636Z,16.56
2016-09-21T03:08:44.593Z,16.55
2016-09-21T03:09:44.738Z,16.62
2016-09-21T03:10:44.494Z,16.63
2016-09-21T03:11:44.453Z,16.74
2016-09-21T03:12:44.094Z,16.73
2016-09-21T03:13:44.045Z,16.71
2016-09-21T03:14:44.566Z,16.63
2016-09-21T03:15:44.244Z,16.62
2016-09-21T03:16:44.135Z,16.75
2016-09-21T03:17:43.841Z,16.71
2016-09-21T03:18:44.107Z,16.71
2016-09-21T03:19:44.261Z,16.73
2016-09-21T03:20:44.083Z,16.67
2016-09-21T03:21:43.663Z,16.63
2016-09-21T03:22:44.118Z,16.63
2016-09-21T03:23:43.954Z,16.65
2016-09-21T03:24:43.522Z,16.7
2016-09-21T03:25:43.781Z,16.83
2016-09-21T03:26:43.423Z,16.85
2016-09-21T03:27:43.591Z,16.8
2016-09-21T03:28:43.642Z,16.83
2016-09-21T03:29:43.271Z,16.78
2016-09-21T03:30:43.540Z,16.71
2016-09-21T03:31:43.478Z,16.71
2016-09-21T03:32:43.439Z,16.71
2016-09-21T03:33:43.310Z,16.67
2016-09-21T03:34:42.949Z,16.58
2016-09-21T03:35:43.288Z,16.5
2016-09-21T03:36:42.931Z,16.42
2016-09-21T03:37:43.818Z,16.42
2016-09-21T03:38:43.159Z,16.38
2016-09-21T03:39:42.998Z,16.42
2016-09-21T03:40:42.741Z,16.41
2016-09-21T03:41:42.717Z,16.45
2016-09-21T03:42:42.856Z,16.41
2016-09-21T03:43:42.902Z,16.41
2016-09-21T03:44:42.874Z,16.27
2016-09-21T03:45:42.204Z,16.35
2016-09-21T03:46:42.473Z,16.31
2016-09-21T03:47:42.736Z,16.33
2016-09-21T03:48:42.670Z,16.35
2016-09-21T03:49:42.308Z,16.26
2016-09-21T03:50:42.473Z,16.27
2016-09-21T03:51:41.924Z,16.41
2016-09-21T03:52:42.169Z,16.42
2016-09-21T03:53:42.433Z,16.4
2016-09-21T03:54:42.382Z,16.48
2016-09-21T03:55:42.341Z,16.45
2016-09-21T03:56:42.492Z,16.53
2016-09-21T03:57:42.230Z,16.55
2016-09-21T03:58:42.402Z,16.62
2016-09-21T03:59:41.881Z,16.63
2016-09-21T04:00:42.107Z,16.56
2016-09-21T04:01:41.747Z,16.58
2016-09-21T04:02:42.211Z,16.62
2016-09-21T04:03:41.838Z,16.6
2016-09-21T04:04:41.300Z,16.56
2016-09-21T04:05:41.575Z,16.58
2016-09-21T04:06:41.796Z,16.59
2016-09-21T04:07:41.788Z,16.71
2016-09-21T04:08:41.715Z,16.73
2016-09-21T04:09:41.357Z,16.73
2016-09-21T04:10:41.298Z,16.78
2016-09-21T04:11:41.607Z,16.73
2016-09-21T04:12:41.612Z,16.62
2016-09-21T04:13:41.495Z,16.65
2016-09-21T04:14:41.553Z,16.63
2016-09-21T04:15:41.084Z,16.71
2016-09-21T04:16:41.343Z,16.7
2016-09-21T04:17:41.682Z,16.62
2016-09-21T04:18:40.930Z,16.58
2016-09-21T04:19:41.215Z,16.58
2016-09-21T04:20:41.580Z,16.49
2016-09-21T04:21:41.123Z,16.55
2016-09-21T04:22:40.734Z,16.5
2016-09-21T04:23:40.992Z,16.45
2016-09-21T04:24:40.953Z,16.33
2016-09-21T04:25:40.789Z,16.31
2016-09-21T04:26:40.838Z,16.27
2016-09-21T04:27:40.801Z,16.27
2016-09-21T04:28:40.754Z,16.27
2016-09-21T04:29:40.720Z,16.22
2016-09-21T04:30:40.866Z,16.22
2016-09-21T04:31:40.641Z,16.2
2016-09-21T04:32:40.570Z,16.23
2016-09-21T04:33:40.777Z,16.3
2016-09-21T04:34:40.169Z,16.26
2016-09-21T04:35:40.108Z,16.26
2016-09-21T04:36:40.372Z,16.31
2016-09-21T04:37:40.003Z,16.34
2016-09-21T04:38:40.271Z,16.27
2016-09-21T04:39:39.933Z,16.4
2016-09-21T04:40:39.561Z,16.44
2016-09-21T04:41:39.845Z,16.48
2016-09-21T04:42:40.070Z,16.42
2016-09-21T04:43:39.730Z,16.41
2016-09-21T04:44:39.996Z,16.45
2016-09-21T04:45:39.623Z,16.48
2016-09-21T04:46:39.889Z,16.49
2016-09-21T04:47:39.851Z,16.48
2016-09-21T04:48:39.789Z,16.48
2016-09-21T04:49:39.950Z,16.38
2016-09-21T04:50:39.705Z,16.45
2016-09-21T04:51:39.554Z,16.44
2016-09-21T04:52:39.304Z,16.55
2016-09-21T04:53:39.574Z,16.59
2016-09-21T04:54:39.393Z,16.58
2016-09-21T04:55:39.458Z,16.58
2016-09-21T04:56:39.406Z,16.59
2016-09-21T04:57:39.375Z,16.63
2016-09-21T04:58:39.316Z,16.63
2016-09-21T04:59:39.283Z,16.63
2016-09-21T05:00:39.414Z,16.62
2016-09-21T05:01:38.867Z,16.68
2016-09-21T05:02:39.121Z,16.7
2016-09-21T05:03:38.766Z,16.67
2016-09-21T05:04:39.013Z,16.65
2016-09-21T05:05:38.979Z,16.5
2016-09-21T05:06:38.955Z,16.42
2016-09-21T05:07:39.217Z,16.35
2016-09-21T05:08:38.524Z,16.27
2016-09-21T05:09:38.781Z,16.34
2016-09-21T05:10:38.977Z,16.31
2016-09-21T05:11:38.697Z,16.27
2016-09-21T05:12:38.343Z,16.38
2016-09-21T05:13:38.620Z,16.42
2016-09-21T05:14:38.546Z,16.58
2016-09-21T05:15:38.287Z,16.58
2016-09-21T05:16:38.674Z,16.49
2016-09-21T05:17:38.425Z,16.48
2016-09-21T05:18:38.353Z,16.4
2016-09-21T05:19:38.213Z,16.48
2016-09-21T05:20:37.955Z,16.59
2016-09-21T05:21:38.233Z,16.55
2016-09-21T05:22:38.206Z,16.56
2016-09-21T05:23:37.822Z,16.6
2016-09-21T05:24:37.780Z,16.62
2016-09-21T05:25:37.711Z,16.6
2016-09-21T05:26:37.965Z,16.63
2016-09-21T05:27:37.622Z,16.4
2016-09-21T05:28:38.091Z,16.41
2016-09-21T05:29:37.827Z,16.41
2016-09-21T05:30:38.190Z,16.53
2016-09-21T05:31:37.740Z,16.41
2016-09-21T05:32:37.812Z,16.49
2016-09-21T05:33:37.654Z,16.44
2016-09-21T05:34:37.798Z,16.42
2016-09-21T05:35:37.745Z,16.44
2016-09-21T05:36:37.489Z,16.59
2016-09-21T05:37:37.154Z,16.5
2016-09-21T05:38:52.018Z,16.42
2016-09-21T05:39:37.358Z,16.48
2016-09-21T05:40:37.315Z,16.42
2016-09-21T05:41:36.932Z,16.38
2016-09-21T05:42:37.395Z,16.37
2016-09-21T05:43:37.158Z,16.34
2016-09-21T05:44:37.116Z,16.31
2016-09-21T05:45:37.265Z,16.27
2016-09-21T05:46:36.713Z,16.35
2016-09-21T05:47:37.159Z,16.35
2016-09-21T05:48:36.304Z,16.26
2016-09-21T05:49:37.066Z,16.3
2016-09-21T05:50:36.514Z,16.35
2016-09-21T05:51:36.784Z,16.23
2016-09-21T05:52:36.411Z,16.26
2016-09-21T05:53:36.664Z,16.2
2016-09-21T05:54:36.516Z,16.26
2016-09-21T05:55:36.275Z,16.18
2016-09-21T05:56:36.567Z,16.2
2016-09-21T05:57:36.179Z,16.26
2016-09-21T05:58:36.482Z,16.3
2016-09-21T05:59:36.421Z,16.22
2016-09-21T06:00:36.758Z,16.31
2016-09-21T06:01:37.107Z,16.16
2016-09-21T06:02:35.941Z,16.14
2016-09-21T06:03:36.200Z,16.22
2016-09-21T06:04:36.345Z,16.23
2016-09-21T06:05:35.803Z,16.25
2016-09-21T06:06:36.303Z,16.26
2016-09-21T06:07:36.004Z,16.27
2016-09-21T06:08:35.952Z,16.34
2016-09-21T06:09:35.926Z,16.16
2016-09-21T06:10:36.059Z,16.2
2016-09-21T06:11:35.819Z,16.18
2016-09-21T06:12:36.156Z,16.09
2016-09-21T06:13:35.116Z,16.06
2016-09-21T06:14:35.668Z,16.06
2016-09-21T06:15:35.309Z,16.07
2016-09-21T06:16:35.782Z,16.09
2016-09-21T06:17:35.527Z,16.09
2016-09-21T06:18:35.454Z,16.11
2016-09-21T06:19:35.110Z,16.2
2016-09-21T06:20:35.074Z,16.16
2016-09-21T06:21:35.332Z,16.2
2016-09-21T06:22:35.579Z,16.26
2016-09-21T06:23:34.923Z,16.3
2016-09-21T06:24:35.231Z,16.23
2016-09-21T06:25:34.820Z,16.34
2016-09-21T06:26:35.094Z,16.27
2016-09-21T06:27:35.037Z,16.26
2016-09-21T06:28:34.997Z,16.38
2016-09-21T06:29:35.145Z,16.25
2016-09-21T06:30:34.890Z,16.22
2016-09-21T06:31:34.838Z,16.25
2016-09-21T06:32:34.792Z,16.2
2016-09-21T06:33:34.455Z,16.25
2016-09-21T06:34:34.699Z,16.31
2016-09-21T06:35:34.656Z,16.27
2016-09-21T06:36:34.619Z,16.18
2016-09-21T06:37:34.962Z,16.18
2016-09-21T06:38:34.711Z,16.03
2016-09-21T06:39:34.366Z,16.23
2016-09-21T06:40:34.607Z,16.04
2016-09-21T06:41:34.065Z,16
2016-09-21T06:42:34.398Z,15.96
2016-09-21T06:43:34.264Z,15.99
2016-09-21T06:44:34.117Z,16.04
2016-09-21T06:45:34.185Z,16.07
2016-09-21T06:46:34.174Z,16.07
2016-09-21T06:47:34.093Z,16.03
2016-09-21T06:48:33.772Z,16.09
2016-09-21T06:49:33.723Z,15.99
2016-09-21T06:50:33.998Z,16.06
2016-09-21T06:51:33.597Z,16.15
2016-09-21T06:52:34.038Z,16.03
2016-09-21T06:53:33.757Z,16.04
2016-09-21T06:54:33.753Z,16.09
2016-09-21T06:55:33.700Z,16.09
2016-09-21T06:56:33.350Z,16.2
2016-09-21T06:57:33.609Z,16.09
2016-09-21T06:58:33.740Z,16.12
2016-09-21T06:59:33.198Z,16.27
2016-09-21T07:00:33.698Z,16.16
2016-09-21T07:01:33.125Z,16.22
2016-09-21T07:02:33.061Z,16.26
2016-09-21T07:03:33.308Z,16.14
2016-09-21T07:04:33.343Z,16.22
2016-09-21T07:05:33.216Z,16.07
2016-09-21T07:06:33.375Z,16.18
2016-09-21T07:07:32.826Z,16.14
2016-09-21T07:08:32.794Z,16.23
2016-09-21T07:09:33.048Z,16.26
2016-09-21T07:10:33.265Z,16.23
2016-09-21T07:11:32.945Z,16.26
2016-09-21T07:12:32.283Z,16.4
2016-09-21T07:13:32.851Z,16.4
2016-09-21T07:14:32.466Z,16.41
2016-09-21T07:15:32.440Z,16.34
2016-09-21T07:16:32.411Z,16.45
2016-09-21T07:17:32.061Z,16.5
2016-09-21T07:18:32.350Z,16.49
2016-09-21T07:19:32.791Z,16.56
2016-09-21T07:20:32.217Z,16.55
2016-09-21T07:21:32.745Z,16.67
2016-09-21T07:22:32.660Z,16.6
2016-09-21T07:23:32.656Z,16.7
2016-09-21T07:24:32.475Z,16.71
2016-09-21T07:25:32.407Z,16.86
2016-09-21T07:26:32.478Z,16.86
2016-09-21T07:27:32.273Z,16.83
2016-09-21T07:28:31.530Z,16.81
2016-09-21T07:29:32.138Z,16.88
2016-09-21T07:30:32.345Z,16.93
2016-09-21T07:31:32.110Z,16.98
2016-09-21T07:32:32.614Z,17.04
2016-09-21T07:33:31.665Z,16.98
2016-09-21T07:34:31.567Z,17.03
2016-09-21T07:35:31.945Z,17.06
2016-09-21T07:36:31.815Z,17.04
2016-09-21T07:37:31.535Z,17.14
2016-09-21T07:38:31.512Z,17.2
2016-09-21T07:39:31.783Z,17.22
2016-09-21T07:40:31.403Z,17.36
2016-09-21T07:41:31.649Z,17.4
2016-09-21T07:42:31.201Z,17.46
2016-09-21T07:43:31.504Z,17.38
2016-09-21T07:44:31.828Z,17.38
2016-09-21T07:45:31.258Z,17.36
2016-09-21T07:46:30.790Z,17.41
2016-09-21T07:47:31.378Z,17.46
2016-09-21T07:48:30.931Z,17.48
2016-09-21T07:49:31.571Z,17.5
2016-09-21T07:50:30.874Z,17.57
2016-09-21T07:51:30.465Z,17.62
2016-09-21T07:52:31.132Z,17.63
2016-09-21T07:53:31.116Z,17.62
2016-09-21T07:54:31.671Z,17.63
2016-09-21T07:55:31.074Z,17.62
2016-09-21T07:56:30.240Z,17.55
2016-09-21T07:57:30.827Z,17.57
2016-09-21T07:58:30.832Z,17.62
2016-09-21T07:59:30.445Z,17.59
2016-09-21T08:00:30.169Z,17.64
2016-09-21T08:01:30.017Z,17.7
2016-09-21T08:02:29.980Z,17.71
2016-09-21T08:03:30.208Z,17.76
2016-09-21T08:04:30.522Z,17.82
2016-09-21T08:05:30.493Z,17.84
2016-09-21T08:06:44.999Z,17.89
2016-09-21T08:07:30.686Z,17.88
2016-09-21T08:08:30.482Z,17.87
2016-09-21T08:09:30.202Z,18.02
2016-09-21T08:10:30.086Z,17.99
2016-09-21T08:11:29.761Z,18.04
2016-09-21T08:12:31.090Z,18.1
2016-09-21T08:13:30.201Z,18
2016-09-21T08:14:29.893Z,18.09
2016-09-21T08:15:30.123Z,18.12
2016-09-21T08:16:30.066Z,18.09
2016-09-21T08:17:30.408Z,18.06
2016-09-21T08:18:29.773Z,18.1
2016-09-21T08:19:29.896Z,18.12
2016-09-21T08:20:30.182Z,18.17
2016-09-21T08:21:29.619Z,18.21
2016-09-21T08:22:29.960Z,18.29
2016-09-21T08:23:29.542Z,18.21
2016-09-21T08:24:29.353Z,18.21
2016-09-21T08:25:30.215Z,18.28
2016-09-21T08:26:29.570Z,18.33
2016-09-21T08:27:29.545Z,18.33
2016-09-21T08:28:29.027Z,18.39
2016-09-21T08:29:29.272Z,18.43
2016-09-21T08:30:28.892Z,18.42
2016-09-21T08:31:28.864Z,18.43
2016-09-21T08:32:29.104Z,18.49
2016-09-21T08:33:29.041Z,18.57
2016-09-21T08:34:28.696Z,18.46
2016-09-21T08:35:29.091Z,18.5
2016-09-21T08:36:29.007Z,18.42
2016-09-21T08:37:28.865Z,18.39
2016-09-21T08:38:29.238Z,18.37
2016-09-21T08:39:28.492Z,18.42
2016-09-21T08:40:28.956Z,18.4
2016-09-21T08:41:28.692Z,18.4
2016-09-21T08:42:28.837Z,18.43
2016-09-21T08:43:28.315Z,18.37
2016-09-21T08:44:27.943Z,18.33
2016-09-21T08:45:28.441Z,18.37
2016-09-21T08:46:28.295Z,18.39
2016-09-21T08:47:28.507Z,18.44
2016-09-21T08:48:28.404Z,18.49
2016-09-21T08:49:28.522Z,18.57
2016-09-21T08:50:28.240Z,18.61
2016-09-21T08:51:28.683Z,18.57
2016-09-21T08:52:28.209Z,18.58
2016-09-21T08:53:28.157Z,18.57
2016-09-21T08:54:27.780Z,18.61
2016-09-21T08:55:28.528Z,18.59
2016-09-21T08:56:28.009Z,18.74
2016-09-21T08:57:27.953Z,18.86
2016-09-21T08:58:27.930Z,18.8
2016-09-21T08:59:27.852Z,18.94
2016-09-21T09:00:27.564Z,18.84
2016-09-21T09:01:27.665Z,18.72
2016-09-21T09:02:28.089Z,18.74
2016-09-21T09:03:27.886Z,18.8
2016-09-21T09:04:27.843Z,18.83
2016-09-21T09:05:27.696Z,18.79
2016-09-21T09:06:28.146Z,18.91
2016-09-21T09:07:27.479Z,18.95
2016-09-21T09:08:27.138Z,18.94
2016-09-21T09:09:27.652Z,18.97
2016-09-21T09:10:27.484Z,18.91
2016-09-21T09:11:27.172Z,18.94
2016-09-21T09:12:26.976Z,19.02
2016-09-21T09:13:27.199Z,19.01
2016-09-21T09:14:27.362Z,19.15
2016-09-21T09:15:26.796Z,19.13
2016-09-21T09:16:27.053Z,19.14
2016-09-21T09:17:26.708Z,19.17
2016-09-21T09:18:26.645Z,19.23
2016-09-21T09:19:27.005Z,19.18
2016-09-21T09:20:26.568Z,19.17
2016-09-21T09:21:26.501Z,19.15
2016-09-21T09:22:27.554Z,19.2
2016-09-21T09:23:26.715Z,19.17
2016-09-21T09:24:26.660Z,19.17
2016-09-21T09:25:26.629Z,19.29
2016-09-21T09:26:26.188Z,19.28
2016-09-21T09:27:26.786Z,19.31
2016-09-21T09:28:26.734Z,19.42
2016-09-21T09:29:26.486Z,19.51
2016-09-21T09:30:26.412Z,19.51
2016-09-21T09:31:26.377Z,19.57
2016-09-21T09:32:26.323Z,19.5
2016-09-21T09:33:26.064Z,19.47
2016-09-21T09:34:26.253Z,19.47
2016-09-21T09:35:26.112Z,19.53
2016-09-21T09:36:26.197Z,19.55
2016-09-21T09:37:25.781Z,19.57
2016-09-21T09:38:26.457Z,19.48
2016-09-21T09:39:26.005Z,19.5
2016-09-21T09:40:25.839Z,19.5
2016-09-21T09:41:25.612Z,19.5
2016-09-21T09:42:25.799Z,19.51
2016-09-21T09:43:25.821Z,19.47
2016-09-21T09:44:25.561Z,19.46
2016-09-21T09:45:25.708Z,19.42
2016-09-21T09:46:25.739Z,19.35
2016-09-21T09:47:25.638Z,19.39
2016-09-21T09:48:25.644Z,19.39
2016-09-21T09:49:25.567Z,19.48
2016-09-21T09:50:25.492Z,19.43
2016-09-21T09:51:25.464Z,19.43
2016-09-21T09:52:26.612Z,19.48
2016-09-21T09:53:25.537Z,19.51
2016-09-21T09:54:25.505Z,19.55
2016-09-21T09:55:24.658Z,19.43
2016-09-21T09:56:25.307Z,19.54
2016-09-21T09:57:26.173Z,19.51
2016-09-21T09:58:25.142Z,19.6
2016-09-21T09:59:25.263Z,19.55
2016-09-21T10:00:24.741Z,19.5
2016-09-21T10:01:25.023Z,19.61
2016-09-21T10:02:25.187Z,19.63
2016-09-21T10:03:25.226Z,19.7
2016-09-21T10:04:24.653Z,19.6
2016-09-21T10:05:24.517Z,19.66
2016-09-21T10:06:24.450Z,19.68
2016-09-21T10:07:24.603Z,19.6
2016-09-21T10:08:25.778Z,19.61
2016-09-21T10:09:25.063Z,19.53
2016-09-21T10:10:24.565Z,19.57
2016-09-21T10:11:24.116Z,19.5
2016-09-21T10:12:25.231Z,19.61
2016-09-21T10:13:24.427Z,19.65
2016-09-21T10:14:24.054Z,19.68
2016-09-21T10:15:24.418Z,19.63
2016-09-21T10:16:25.401Z,19.83
2016-09-21T10:17:24.606Z,19.84
2016-09-21T10:18:24.744Z,19.86
2016-09-21T10:19:24.571Z,19.87
2016-09-21T10:20:23.736Z,19.87
2016-09-21T10:21:23.689Z,19.83
2016-09-21T10:22:24.165Z,19.8
2016-09-21T10:23:24.546Z,19.87
2016-09-21T10:24:23.610Z,19.86
2016-09-21T10:25:23.595Z,19.94
2016-09-21T10:26:23.858Z,20
2016-09-21T10:27:23.499Z,20.02
2016-09-21T10:28:23.829Z,20.06
2016-09-21T10:29:23.743Z,20.02
2016-09-21T10:30:23.684Z,19.97
2016-09-21T10:31:24.002Z,19.97
2016-09-21T10:32:23.554Z,20.03
2016-09-21T10:33:23.495Z,20
2016-09-21T10:34:23.661Z,20.1
2016-09-21T10:35:23.402Z,20.08
2016-09-21T10:36:23.356Z,20.13
2016-09-21T10:37:23.008Z,20.15
2016-09-21T10:38:23.507Z,20.16
2016-09-21T10:39:23.268Z,20.28
2016-09-21T10:40:23.178Z,20.24
2016-09-21T10:41:23.167Z,20.25
2016-09-21T10:42:22.776Z,20.24
2016-09-21T10:43:23.046Z,20.24
2016-09-21T10:44:23.024Z,20.21
2016-09-21T10:45:22.962Z,20.15
2016-09-21T10:46:22.924Z,20.2
2016-09-21T10:47:22.582Z,20.15
2016-09-21T10:48:22.542Z,20.18
2016-09-21T10:49:22.773Z,20.06
2016-09-21T10:50:22.420Z,20
2016-09-21T10:51:22.686Z,20.12
2016-09-21T10:52:22.847Z,19.98
2016-09-21T10:53:22.585Z,20.02
2016-09-21T10:54:22.576Z,19.9
2016-09-21T10:55:22.508Z,19.87
2016-09-21T10:56:22.457Z,19.97
2016-09-21T10:57:22.423Z,19.88
2016-09-21T10:58:22.146Z,19.93
2016-09-21T10:59:22.343Z,19.94
2016-09-21T11:00:22.374Z,19.97
2016-09-21T11:01:22.397Z,20.03
2016-09-21T11:02:21.858Z,19.97
2016-09-21T11:03:22.428Z,19.95
2016-09-21T11:04:22.224Z,20.02
2016-09-21T11:05:22.350Z,20.02
2016-09-21T11:06:22.332Z,20.09
2016-09-21T11:07:22.035Z,20.1
2016-09-21T11:08:21.660Z,20
2016-09-21T11:09:22.287Z,20.03
2016-09-21T11:10:21.523Z,19.94
2016-09-21T11:11:21.796Z,20.02
2016-09-21T11:12:21.167Z,20.02
2016-09-21T11:13:21.710Z,20.08
2016-09-21T11:14:21.560Z,20.1
2016-09-21T11:15:21.281Z,20.13
2016-09-21T11:16:21.279Z,20.1
2016-09-21T11:17:21.891Z,20.06
2016-09-21T11:18:21.677Z,20.12
2016-09-21T11:19:21.511Z,20.15
2016-09-21T11:20:21.565Z,20.15
2016-09-21T11:21:21.049Z,20.2
2016-09-21T11:22:21.295Z,20.24
2016-09-21T11:23:21.545Z,20.34
2016-09-21T11:24:21.192Z,20.31
2016-09-21T11:25:21.413Z,20.31
2016-09-21T11:26:20.838Z,20.3
2016-09-21T11:27:21.087Z,20.34
2016-09-21T11:28:20.937Z,20.28
2016-09-21T11:29:20.859Z,20.31
2016-09-21T11:30:20.959Z,20.35
2016-09-21T11:31:20.264Z,20.33
2016-09-21T11:32:21.067Z,20.41
2016-09-21T11:33:21.052Z,20.41
2016-09-21T11:34:20.746Z,20.31
2016-09-21T11:35:20.766Z,20.39
2016-09-21T11:36:20.695Z,20.51
2016-09-21T11:37:21.016Z,20.64
2016-09-21T11:38:20.634Z,20.66
2016-09-21T11:39:20.545Z,20.77
2016-09-21T11:40:20.416Z,20.77
2016-09-21T11:41:20.110Z,20.71
2016-09-21T11:42:20.486Z,20.69
2016-09-21T11:43:20.042Z,20.71
2016-09-21T11:44:20.493Z,20.79
2016-09-21T11:45:20.510Z,20.76
2016-09-21T11:46:20.301Z,20.69
2016-09-21T11:47:19.867Z,20.79
2016-09-21T11:48:20.170Z,20.74
2016-09-21T11:49:20.522Z,20.84
2016-09-21T11:50:19.743Z,20.71
2016-09-21T11:51:20.029Z,20.8
2016-09-21T11:52:19.702Z,20.76
2016-09-21T11:53:19.591Z,20.76
2016-09-21T11:54:19.604Z,20.64
2016-09-21T11:55:19.492Z,20.74
2016-09-21T11:56:19.727Z,20.8
2016-09-21T11:57:19.415Z,20.8
2016-09-21T11:58:19.363Z,20.74
2016-09-21T11:59:19.312Z,20.79
2016-09-21T12:00:18.965Z,20.64
2016-09-21T12:01:18.982Z,20.69
2016-09-21T12:02:19.560Z,20.65
2016-09-21T12:03:19.533Z,20.62
2016-09-21T12:04:19.389Z,20.71
2016-09-21T12:05:19.596Z,20.77
2016-09-21T12:06:19.503Z,20.74
2016-09-21T12:07:19.439Z,20.71
2016-09-21T12:08:19.181Z,20.79
2016-09-21T12:09:19.209Z,20.93
2016-09-21T12:10:19.137Z,20.91
2016-09-21T12:11:19.086Z,20.98
2016-09-21T12:12:18.445Z,21.02
2016-09-21T12:13:18.682Z,21.11
2016-09-21T12:14:18.875Z,21.05
2016-09-21T12:15:19.321Z,21.08
2016-09-21T12:16:18.650Z,21.19
2016-09-21T12:17:18.507Z,21.27
2016-09-21T12:18:18.543Z,21.27
2016-09-21T12:19:18.711Z,21.32
2016-09-21T12:20:18.711Z,21.23
2016-09-21T12:21:18.323Z,21.21
2016-09-21T12:22:18.453Z,21.24
2016-09-21T12:23:18.555Z,21.16
2016-09-21T12:24:18.712Z,21.11
2016-09-21T12:25:18.452Z,21.11
2016-09-21T12:26:18.397Z,21.14
2016-09-21T12:27:18.047Z,21.09
2016-09-21T12:28:18.568Z,21.09
2016-09-21T12:29:17.965Z,21.05
2016-09-21T12:30:18.509Z,21.01
2016-09-21T12:31:18.064Z,20.95
2016-09-21T12:32:18.004Z,20.96
2016-09-21T12:33:17.779Z,21.08
2016-09-21T12:34:17.726Z,21.09
2016-09-21T12:35:18.237Z,21.09
2016-09-21T12:36:17.989Z,21.17
2016-09-21T12:37:17.582Z,21.11
2016-09-21T12:38:17.877Z,21.16
2016-09-21T12:39:17.900Z,21.19
2016-09-21T12:40:18.461Z,21.17
2016-09-21T12:41:18.153Z,21.09
2016-09-21T12:42:18.086Z,21.13
2016-09-21T12:43:17.568Z,21.08
2016-09-21T12:44:18.507Z,21.14
2016-09-21T12:45:17.770Z,21.06
2016-09-21T12:46:16.907Z,21.13
2016-09-21T12:47:17.155Z,21.11
2016-09-21T12:48:17.833Z,21.2
2016-09-21T12:49:17.345Z,21.16
2016-09-21T12:50:18.054Z,21.13
2016-09-21T12:51:18.008Z,21.2
2016-09-21T12:52:17.469Z,21.19
2016-09-21T12:53:17.183Z,21.26
2016-09-21T12:54:16.816Z,21.24
2016-09-21T12:55:17.299Z,21.39
2016-09-21T12:56:17.447Z,21.23